Gay, Michigan
Current Conditions -  °F | °C
As of 3:53 AM on Wednesday 28 Jan 2015 (Local Time) from KCMX Reporting Station
Overcast Overcast  
Wind Chill: 16°   Ceiling: 1600
Heat Index: 23°   Visibility: 10mi
Dew Point: 18°   Wind: 6mph
Humidity: 81%   Direction: 190°S
Pressure: 30.11"   Gusts: NA
Location:  47.115°N, 88.3635°W
Report Text: KCMX 280853Z AUTO 19005KT 10SM OVC016 M05/M08 A3011 RMK AO2 SLP215 T10501078 58009
Loading
Personal Weather Stations






























Interactive Weather Map New forecast layout! Learn more

10-Day Weather Forecast

Advertisements
Track Severe Weather on mobile